Eagle Kuching — 9V8132 — position and weather

sailwx.info

Track history (hours):
 
Tides and Currents Weather Stations Pressure Air Temp Water Temp Dewpoint Dewpoint Depression Visibility Wind Speed Wind Dir Waves Ship Positions

Eagle Kuching

Last reported at 2017-Nov-18 00:00 UTC. Time now 2017-Nov-19 10:48 UTC.
Position N 18°42' W 093°06'.

Length 243 m; draft 8.8 m.

Type: Tanker. MMSI: 565108000.

Wind from 040 at 10 knots

Barometer 1013.0 mb
Air temperature 27.0 ° C
Dewpoint 21.3 ° C

Date/timePositionNaut miles runAvg speedWind from/ knotsBaromVisibWave heightAir tempDewpointWater temp
2017-Nov-18 00:00N 18°42' W 093°06'38 1.0 040 / 101013.0 27.021.3
2017-Nov-16 09:00N 19°18' W 093°18'8510.6 350 / 51013.027.0 24.021.121.0
2017-Nov-16 01:00N 20°42' W 093°30'24919.2 090 / 91014.0 24.021.1
2017-Nov-15 12:00N 23°18' W 097°00'16053.2
2017-Nov-15 09:00N 24°00' W 094°12'17413.2 100 / 191015.010.8 24.019.620.0
2017-Nov-14 19:47N 26°52' W 094°45'412.9
2017-Nov-14 19:30N 26°55' W 094°46'712.8
2017-Nov-14 19:00N 27°02' W 094°48'712.9
2017-Nov-14 18:29N 27°08' W 094°50'712.9
2017-Nov-14 17:59N 27°14' W 094°51'713.0
2017-Nov-14 17:29N 27°21' W 094°53'613.0
2017-Nov-14 17:00N 27°27' W 094°55'  
2017-Nov-10 12:07N 29°35' W 093°25'0 4.7
2017-Nov-10 12:00N 29°35' W 093°24'2 3.4
2017-Nov-10 11:30N 29°36' W 093°23'2 5.0
2017-Nov-10 11:00N 29°36' W 093°20'1210.2
2017-Nov-10 09:51N 29°48' W 093°21'5 9.1
2017-Nov-10 09:16N 29°53' W 093°21'2 8.4
2017-Nov-10 08:59N 29°56' W 093°20'4 8.3
2017-Nov-10 08:30N 29°60' W 093°20'3 6.5
2017-Nov-10 08:00N 30°03' W 093°20'4 7.7
2017-Nov-10 07:30N 30°07' W 093°20'2 4.5
2017-Nov-10 07:00N 30°09' W 093°20'1 1.3
2017-Nov-10 06:30N 30°10' W 093°20'0 0.0
2017-Nov-10 06:00N 30°10' W 093°20'0 0.0
2017-Nov-10 05:29N 30°10' W 093°20'0 0.0
2017-Nov-10 04:59N 30°10' W 093°20'0 0.0
2017-Nov-10 04:29N 30°10' W 093°20'0 0.0
2017-Nov-10 03:59N 30°10' W 093°20'0 0.0
2017-Nov-10 03:29N 30°10' W 093°20'0 0.0
2017-Nov-10 02:59N 30°10' W 093°20'0 0.0
2017-Nov-10 02:29N 30°10' W 093°20'0 0.0
2017-Nov-10 01:56N 30°10' W 093°20'0 0.0
2017-Nov-10 01:29N 30°10' W 093°20'0 0.0
2017-Nov-10 00:59N 30°10' W 093°20'0 0.0
2017-Nov-10 00:29N 30°10' W 093°20'0 0.0
2017-Nov-09 23:59N 30°10' W 093°20'0 0.0
2017-Nov-09 23:29N 30°10' W 093°20'0 0.0
2017-Nov-09 22:59N 30°10' W 093°20'0 0.0
2017-Nov-09 22:29N 30°10' W 093°20'0 0.0
2017-Nov-09 21:59N 30°10' W 093°20'0 0.0
2017-Nov-09 21:29N 30°10' W 093°20'0 0.0
2017-Nov-09 20:59N 30°10' W 093°20'0 0.0
2017-Nov-09 20:29N 30°10' W 093°20'0 0.0
2017-Nov-09 19:59N 30°10' W 093°20'0 0.0
2017-Nov-09 19:29N 30°10' W 093°20'0 0.0
2017-Nov-09 18:59N 30°10' W 093°20'0 0.0
2017-Nov-09 18:29N 30°10' W 093°20'0 0.0
2017-Nov-09 17:59N 30°10' W 093°20'0 0.0
2017-Nov-09 17:29N 30°10' W 093°20'0 0.0
2017-Nov-09 16:59N 30°10' W 093°20'0 0.0
2017-Nov-09 16:29N 30°10' W 093°20'0 0.0
2017-Nov-09 15:59N 30°10' W 093°20'0 0.0
2017-Nov-09 15:29N 30°10' W 093°20'0 0.0
2017-Nov-09 14:59N 30°10' W 093°20'0 0.0
2017-Nov-09 14:29N 30°10' W 093°20'0 0.0
2017-Nov-09 13:59N 30°09' W 093°20'0 0.0
2017-Nov-09 13:29N 30°10' W 093°20'0 0.0
2017-Nov-09 12:59N 30°10' W 093°20'0 0.0
2017-Nov-09 12:29N 30°10' W 093°20'0 0.0
2017-Nov-09 11:59N 30°10' W 093°20'0 0.0
2017-Nov-09 11:29N 30°10' W 093°20'0 0.0
2017-Nov-09 10:59N 30°10' W 093°20'0 0.0
2017-Nov-09 10:29N 30°10' W 093°20'0 0.0
2017-Nov-09 09:59N 30°10' W 093°20'0 0.0
2017-Nov-09 09:29N 30°10' W 093°20'0 0.0
2017-Nov-09 08:59N 30°10' W 093°20'0 0.0
2017-Nov-09 08:29N 30°10' W 093°20'0 0.0
2017-Nov-09 07:59N 30°10' W 093°20'0 0.0
2017-Nov-09 07:29N 30°10' W 093°20'0 0.0
2017-Nov-09 06:59N 30°10' W 093°20'0 0.0
2017-Nov-09 06:29N 30°10' W 093°20'0 0.0
2017-Nov-09 05:59N 30°10' W 093°20'0 0.0
2017-Nov-09 05:29N 30°10' W 093°20'0 0.0
2017-Nov-09 04:59N 30°10' W 093°20'0 0.0
2017-Nov-09 04:29N 30°10' W 093°20'0 0.0
2017-Nov-09 03:59N 30°10' W 093°20'0 0.0
2017-Nov-09 03:29N 30°10' W 093°20'0 0.0
2017-Nov-09 02:59N 30°10' W 093°20'0 0.0
2017-Nov-09 02:29N 30°10' W 093°20'0 0.0
2017-Nov-09 01:59N 30°10' W 093°20'0 0.0
2017-Nov-09 01:29N 30°10' W 093°20'0 0.0
2017-Nov-09 00:59N 30°10' W 093°20'0 0.0
2017-Nov-09 00:29N 30°10' W 093°20'0 0.0
2017-Nov-08 23:59N 30°10' W 093°20'0 0.0
2017-Nov-08 23:29N 30°10' W 093°20'0 0.0
2017-Nov-08 22:59N 30°10' W 093°20'0 0.0
2017-Nov-08 22:29N 30°10' W 093°20'0 0.0
2017-Nov-08 21:59N 30°10' W 093°20'0 0.0
2017-Nov-08 21:29N 30°10' W 093°20'0 0.0
2017-Nov-08 20:59N 30°10' W 093°20'0 0.0
2017-Nov-08 20:26N 30°10' W 093°20'0 0.0
2017-Nov-08 19:59N 30°10' W 093°20'0 0.0
2017-Nov-08 19:29N 30°10' W 093°20'0 0.0
2017-Nov-08 18:59N 30°10' W 093°20'0 0.0
2017-Nov-08 18:29N 30°10' W 093°20'0 0.0
2017-Nov-08 17:59N 30°10' W 093°20'0 0.0
2017-Nov-08 17:29N 30°10' W 093°20'0 0.0
2017-Nov-08 16:59N 30°10' W 093°20'0 0.0
2017-Nov-08 16:29N 30°10' W 093°20'0 0.0
2017-Nov-08 15:59N 30°10' W 093°20'0 0.0
2017-Nov-08 15:29N 30°10' W 093°20'0 0.3
2017-Nov-08 15:00N 30°09' W 093°20'2 3.5
2017-Nov-08 14:30N 30°08' W 093°20'3 5.9
2017-Nov-08 14:00N 30°05' W 093°20'3 6.4
2017-Nov-08 13:30N 30°01' W 093°20'3 6.0
2017-Nov-08 13:00N 29°58' W 093°20'4 7.5
2017-Nov-08 12:30N 29°55' W 093°20'4 7.1
2017-Nov-08 12:00N 29°51' W 093°21'4 7.0
2017-Nov-08 11:30N 29°48' W 093°21'4 8.0
2017-Nov-08 11:00N 29°44' W 093°20'25 5.1
2017-Nov-08 06:02N 29°20' W 093°10'0 0.0
2017-Nov-08 05:51N 29°20' W 093°10'4 0.7
2017-Nov-08 00:00N 29°18' W 093°06'   180 / 31017.0 24.021.1
Track history (hours):
 
Tides and Currents Weather Stations Pressure Air Temp Water Temp Dewpoint Dewpoint Depression Visibility Wind Speed Wind Dir Waves Ship Positions

Eagle Kuching

Last reported at 2017-Nov-18 00:00 UTC. Time now 2017-Nov-19 10:48 UTC.
Position N 18°42' W 093°06'.

Length 243 m; draft 8.8 m.

Type: Tanker. MMSI: 565108000.

Wind from 040 at 10 knots

Barometer 1013.0 mb
Air temperature 27.0 ° C
Dewpoint 21.3 ° C

Date/timePositionNaut miles runAvg speedWind from/ knotsBaromVisibWave heightAir tempDewpointWater temp
2017-Nov-18 00:00N 18°42' W 093°06'38 1.0 040 / 101013.0 27.021.3
2017-Nov-16 09:00N 19°18' W 093°18'8510.6 350 / 51013.027.0 24.021.121.0
2017-Nov-16 01:00N 20°42' W 093°30'24919.2 090 / 91014.0 24.021.1
2017-Nov-15 12:00N 23°18' W 097°00'16053.2
2017-Nov-15 09:00N 24°00' W 094°12'17413.2 100 / 191015.010.8 24.019.620.0
2017-Nov-14 19:47N 26°52' W 094°45'412.9
2017-Nov-14 19:30N 26°55' W 094°46'712.8
2017-Nov-14 19:00N 27°02' W 094°48'712.9
2017-Nov-14 18:29N 27°08' W 094°50'712.9
2017-Nov-14 17:59N 27°14' W 094°51'713.0
2017-Nov-14 17:29N 27°21' W 094°53'613.0
2017-Nov-14 17:00N 27°27' W 094°55'  
2017-Nov-10 12:07N 29°35' W 093°25'0 4.7
2017-Nov-10 12:00N 29°35' W 093°24'2 3.4
2017-Nov-10 11:30N 29°36' W 093°23'2 5.0
2017-Nov-10 11:00N 29°36' W 093°20'1210.2
2017-Nov-10 09:51N 29°48' W 093°21'5 9.1
2017-Nov-10 09:16N 29°53' W 093°21'2 8.4
2017-Nov-10 08:59N 29°56' W 093°20'4 8.3
2017-Nov-10 08:30N 29°60' W 093°20'3 6.5
2017-Nov-10 08:00N 30°03' W 093°20'4 7.7
2017-Nov-10 07:30N 30°07' W 093°20'2 4.5
2017-Nov-10 07:00N 30°09' W 093°20'1 1.3
2017-Nov-10 06:30N 30°10' W 093°20'0 0.0
2017-Nov-10 06:00N 30°10' W 093°20'0 0.0
2017-Nov-10 05:29N 30°10' W 093°20'0 0.0
2017-Nov-10 04:59N 30°10' W 093°20'0 0.0
2017-Nov-10 04:29N 30°10' W 093°20'0 0.0
2017-Nov-10 03:59N 30°10' W 093°20'0 0.0
2017-Nov-10 03:29N 30°10' W 093°20'0 0.0
2017-Nov-10 02:59N 30°10' W 093°20'0 0.0
2017-Nov-10 02:29N 30°10' W 093°20'0 0.0
2017-Nov-10 01:56N 30°10' W 093°20'0 0.0
2017-Nov-10 01:29N 30°10' W 093°20'0 0.0
2017-Nov-10 00:59N 30°10' W 093°20'0 0.0
2017-Nov-10 00:29N 30°10' W 093°20'0 0.0
2017-Nov-09 23:59N 30°10' W 093°20'0 0.0
2017-Nov-09 23:29N 30°10' W 093°20'0 0.0
2017-Nov-09 22:59N 30°10' W 093°20'0 0.0
2017-Nov-09 22:29N 30°10' W 093°20'0 0.0
2017-Nov-09 21:59N 30°10' W 093°20'0 0.0
2017-Nov-09 21:29N 30°10' W 093°20'0 0.0
2017-Nov-09 20:59N 30°10' W 093°20'0 0.0
2017-Nov-09 20:29N 30°10' W 093°20'0 0.0
2017-Nov-09 19:59N 30°10' W 093°20'0 0.0
2017-Nov-09 19:29N 30°10' W 093°20'0 0.0
2017-Nov-09 18:59N 30°10' W 093°20'0 0.0
2017-Nov-09 18:29N 30°10' W 093°20'0 0.0
2017-Nov-09 17:59N 30°10' W 093°20'0 0.0
2017-Nov-09 17:29N 30°10' W 093°20'0 0.0
2017-Nov-09 16:59N 30°10' W 093°20'0 0.0
2017-Nov-09 16:29N 30°10' W 093°20'0 0.0
2017-Nov-09 15:59N 30°10' W 093°20'0 0.0
2017-Nov-09 15:29N 30°10' W 093°20'0 0.0
2017-Nov-09 14:59N 30°10' W 093°20'0 0.0
2017-Nov-09 14:29N 30°10' W 093°20'0 0.0
2017-Nov-09 13:59N 30°09' W 093°20'0 0.0
2017-Nov-09 13:29N 30°10' W 093°20'0 0.0
2017-Nov-09 12:59N 30°10' W 093°20'0 0.0
2017-Nov-09 12:29N 30°10' W 093°20'0 0.0
2017-Nov-09 11:59N 30°10' W 093°20'0 0.0
2017-Nov-09 11:29N 30°10' W 093°20'0 0.0
2017-Nov-09 10:59N 30°10' W 093°20'0 0.0
2017-Nov-09 10:29N 30°10' W 093°20'0 0.0
2017-Nov-09 09:59N 30°10' W 093°20'0 0.0
2017-Nov-09 09:29N 30°10' W 093°20'0 0.0
2017-Nov-09 08:59N 30°10' W 093°20'0 0.0
2017-Nov-09 08:29N 30°10' W 093°20'0 0.0
2017-Nov-09 07:59N 30°10' W 093°20'0 0.0
2017-Nov-09 07:29N 30°10' W 093°20'0 0.0
2017-Nov-09 06:59N 30°10' W 093°20'0 0.0
2017-Nov-09 06:29N 30°10' W 093°20'0 0.0
2017-Nov-09 05:59N 30°10' W 093°20'0 0.0
2017-Nov-09 05:29N 30°10' W 093°20'0 0.0
2017-Nov-09 04:59N 30°10' W 093°20'0 0.0
2017-Nov-09 04:29N 30°10' W 093°20'0 0.0
2017-Nov-09 03:59N 30°10' W 093°20'0 0.0
2017-Nov-09 03:29N 30°10' W 093°20'0 0.0
2017-Nov-09 02:59N 30°10' W 093°20'0 0.0
2017-Nov-09 02:29N 30°10' W 093°20'0 0.0
2017-Nov-09 01:59N 30°10' W 093°20'0 0.0
2017-Nov-09 01:29N 30°10' W 093°20'0 0.0
2017-Nov-09 00:59N 30°10' W 093°20'0 0.0
2017-Nov-09 00:29N 30°10' W 093°20'0 0.0
2017-Nov-08 23:59N 30°10' W 093°20'0 0.0
2017-Nov-08 23:29N 30°10' W 093°20'0 0.0
2017-Nov-08 22:59N 30°10' W 093°20'0 0.0
2017-Nov-08 22:29N 30°10' W 093°20'0 0.0
2017-Nov-08 21:59N 30°10' W 093°20'0 0.0
2017-Nov-08 21:29N 30°10' W 093°20'0 0.0
2017-Nov-08 20:59N 30°10' W 093°20'0 0.0
2017-Nov-08 20:26N 30°10' W 093°20'0 0.0
2017-Nov-08 19:59N 30°10' W 093°20'0 0.0
2017-Nov-08 19:29N 30°10' W 093°20'0 0.0
2017-Nov-08 18:59N 30°10' W 093°20'0 0.0
2017-Nov-08 18:29N 30°10' W 093°20'0 0.0
2017-Nov-08 17:59N 30°10' W 093°20'0 0.0
2017-Nov-08 17:29N 30°10' W 093°20'0 0.0
2017-Nov-08 16:59N 30°10' W 093°20'0 0.0
2017-Nov-08 16:29N 30°10' W 093°20'0 0.0
2017-Nov-08 15:59N 30°10' W 093°20'0 0.0
2017-Nov-08 15:29N 30°10' W 093°20'0 0.3
2017-Nov-08 15:00N 30°09' W 093°20'2 3.5
2017-Nov-08 14:30N 30°08' W 093°20'3 5.9
2017-Nov-08 14:00N 30°05' W 093°20'3 6.4
2017-Nov-08 13:30N 30°01' W 093°20'3 6.0
2017-Nov-08 13:00N 29°58' W 093°20'4 7.5
2017-Nov-08 12:30N 29°55' W 093°20'4 7.1
2017-Nov-08 12:00N 29°51' W 093°21'4 7.0
2017-Nov-08 11:30N 29°48' W 093°21'4 8.0
2017-Nov-08 11:00N 29°44' W 093°20'25 5.1
2017-Nov-08 06:02N 29°20' W 093°10'0 0.0
2017-Nov-08 05:51N 29°20' W 093°10'4 0.7
2017-Nov-08 00:00N 29°18' W 093°06'   180 / 31017.0 24.021.1

Dump ship's entire track history